Currently 51°F in Anza, California, USA
51°F
51°F / 40°F
15 mph W
0.00"
Thursday, March 23, 2017 11:23 AM PDT

Anza, California Weather Summary
Last 36 Hours

Temperature Winds Hourly Humidity Dewpoint
Time Report Norm Report Norm Max Gusts Precip. Rpt. Norm Rpt. Norm Pressure
1Thu 11:23 AM  50.9°F  66°F  15 mph W  10 mph  23 mph  0.00"  72%  35%  42°F  37°F  N/A
2Thu 11:21 AM  51.0°F  66°F  17 mph W  10 mph  23 mph  ----  73%  35%  42°F  37°F  N/A
Thu 11:00 AM  50.5°F  65°F  11 mph W  9 mph  23 mph  0.00"  75%  36%  43°F  37°F  N/A
Thu 10:00 AM  47.2°F  62°F  10 mph W  9 mph  23 mph  0.00"  85%  41%  43°F  37°F  N/A
Thu 09:00 AM  42.8°F  58°F  14 mph W  7 mph  23 mph  0.00"  97%  50%  42°F  39°F  N/A
Thu 08:00 AM  41.7°F  51°F  11 mph NW  5 mph  21 mph  0.00"  98%  64%  41°F  39°F  N/A
Thu 07:00 AM  41.0°F  45°F  12 mph NW  4 mph  26 mph  0.00"  98%  70%  41°F  36°F  N/A
Thu 06:00 AM  41.0°F  45°F  15 mph W  4 mph  25 mph  0.00"  99%  72%  41°F  36°F  N/A
Thu 05:00 AM  40.5°F  45°F  12 mph NW  4 mph  22 mph  0.00"  98%  73%  40°F  36°F  N/A
Thu 04:00 AM  40.2°F  46°F  13 mph W  4 mph  20 mph  0.00"  98%  73%  40°F  37°F  N/A
3Thu 03:44 AM  39.9°F  46°F  11 mph NW  5 mph  19 mph  ----  98%  73%  39°F  37°F  N/A
Thu 03:00 AM  41.1°F  46°F  12 mph W  4 mph  28 mph  0.00"  98%  74%  40°F  37°F  N/A
Thu 02:00 AM  41.3°F  46°F  16 mph W  4 mph  26 mph  0.00"  98%  75%  41°F  38°F  N/A
Thu 01:00 AM  42.5°F  47°F  12 mph W  4 mph  28 mph  0.00"  99%  75%  42°F  39°F  N/A
Thu 12:00 AM  42.3°F  48°F  17 mph NW  4 mph  26 mph  0.00"  98%  74%  42°F  39°F  N/A
Wed 11:00 PM  42.1°F  48°F  12 mph NW  4 mph  28 mph  0.00"  98%  73%  42°F  40°F  N/A
Wed 10:00 PM  42.7°F  49°F  18 mph W  4 mph  27 mph  0.00"  97%  72%  42°F  40°F  N/A
Wed 09:00 PM  42.9°F  51°F  14 mph W  4 mph  24 mph  0.00"  97%  68%  42°F  41°F  N/A
Wed 08:00 PM  43.7°F  54°F  14 mph W  5 mph  21 mph  0.00"  95%  64%  42°F  42°F  N/A
Wed 07:00 PM  46.2°F  59°F  11 mph NW  6 mph  19 mph  0.00"  95%  56%  45°F  42°F  N/A
Wed 06:00 PM  49.5°F  63°F  10 mph NW  9 mph  20 mph  0.00"  85%  47%  45°F  42°F  N/A
Wed 05:00 PM  52.7°F  66°F  14 mph W  10 mph  19 mph  0.00"  75%  40%  45°F  41°F  N/A
Wed 04:00 PM  55.3°F  68°F  11 mph W  11 mph  20 mph  0.00"  68%  37%  44°F  40°F  N/A
Wed 03:00 PM  55.0°F  69°F  9 mph W  11 mph  23 mph  0.00"  64%  33%  43°F  38°F  N/A
Wed 02:00 PM  52.4°F  69°F  13 mph NW  11 mph  29 mph  0.00"  82%  33%  47°F  38°F  N/A
Wed 01:00 PM  55.2°F  69°F  16 mph NW  11 mph  24 mph  0.00"  77%  32%  48°F  36°F  N/A
Wed 12:00 PM  56.6°F  68°F  17 mph NW  10 mph  25 mph  0.00"  79%  32%  50°F  36°F  N/A
Wed 11:00 AM  55.1°F  66°F  12 mph NW  9 mph  18 mph  0.00"  83%  34%  50°F  36°F  N/A
Wed 10:00 AM  52.5°F  63°F  11 mph NW  8 mph  19 mph  0.00"  94%  38%  51°F  36°F  N/A
Wed 09:00 AM  49.9°F  59°F  10 mph NW  7 mph  19 mph  0.00"  99%  47%  50°F  38°F  N/A
Wed 08:00 AM  49.3°F  51°F  9 mph NW  5 mph  21 mph  0.01"  100%  62%  49°F  38°F  N/A
Wed 07:00 AM  49.0°F  46°F  15 mph NW  3 mph  23 mph  0.00"  100%  67%  49°F  35°F  N/A
Wed 06:00 AM  50.0°F  45°F  12 mph NW  4 mph  21 mph  0.00"  100%  70%  50°F  35°F  N/A
Wed 05:00 AM  50.8°F  45°F  10 mph NW  4 mph  20 mph  0.01"  100%  71%  51°F  36°F  N/A
Wed 04:00 AM  50.7°F  45°F  11 mph NW  4 mph  17 mph  0.01"  100%  71%  51°F  36°F  N/A
Wed 03:00 AM  50.7°F  46°F  7 mph NW  3 mph  17 mph  0.01"  99%  72%  51°F  37°F  N/A
Wed 02:00 AM  50.6°F  46°F  9 mph NW  3 mph  14 mph  0.00"  99%  73%  50°F  37°F  N/A
Wed 01:00 AM  51.7°F  47°F  8 mph NW  4 mph  14 mph  0.01"  99%  73%  51°F  38°F  N/A
Wed 12:00 AM  52.0°F  48°F  8 mph NW  4 mph  13 mph  0.00"  99%  72%  52°F  39°F  N/A

  1. Current weather data. No green row appears if the current weather data is also the high or low for the current day.
  2. High temperature for the current day.
  3. Low temperature for the current day.

The Anza, California weather pages are a service of WeatherCurrents. The Anza Valley is southwestern Riverside County, east of Temecula and Aguanga, south of Mount San Jacinto and west of Mount Santa Rosa.
Copyright ©Thu Mar 23 11:24:35 PDT 2017  WeatherCurrents. All rights reserved. - Submit questions and comments - Privacy Policy

This page automatically refreshes every 10 minutes.